createdAt,value
2022-10-06T00:00:16.584Z,0.30
2022-10-06T00:02:47.172Z,0.50
2022-10-06T00:05:16.191Z,0.30
2022-10-06T00:07:45.351Z,0.35
2022-10-06T00:10:14.545Z,0.50
2022-10-06T00:12:44.458Z,0.30
2022-10-06T00:15:16.111Z,0.40
2022-10-06T00:17:46.600Z,0.40
2022-10-06T00:20:15.951Z,0.55
2022-10-06T00:22:47.519Z,0.50
2022-10-06T00:25:20.400Z,0.20
2022-10-06T00:27:51.865Z,0.40
2022-10-06T00:30:23.171Z,0.47
2022-10-06T00:32:56.033Z,0.40
2022-10-06T00:35:26.390Z,0.20
2022-10-06T00:37:55.947Z,0.30
2022-10-06T00:40:24.965Z,0.35
2022-10-06T00:42:56.868Z,0.23
2022-10-06T00:45:32.759Z,0.52
2022-10-06T00:48:08.402Z,0.30
2022-10-06T00:50:37.829Z,0.43
2022-10-06T00:53:07.281Z,0.27
2022-10-06T00:55:36.341Z,0.30
2022-10-06T00:58:07.350Z,0.55
2022-10-06T01:00:36.668Z,0.40
2022-10-06T01:03:11.810Z,0.40
2022-10-06T01:05:46.561Z,0.40
2022-10-06T01:08:16.163Z,0.10
2022-10-06T01:10:45.327Z,0.40
2022-10-06T01:13:15.343Z,0.28
2022-10-06T01:15:50.909Z,0.30
2022-10-06T01:18:27.101Z,0.30
2022-10-06T01:21:03.215Z,0.40
2022-10-06T01:23:36.020Z,0.27
2022-10-06T01:26:09.362Z,0.40
2022-10-06T01:28:39.130Z,0.30
2022-10-06T01:31:10.160Z,0.50
2022-10-06T01:33:39.209Z,0.25
2022-10-06T01:36:08.706Z,0.37
2022-10-06T01:38:39.103Z,0.45
2022-10-06T01:41:08.140Z,0.53
2022-10-06T01:43:37.869Z,0.33
2022-10-06T01:46:07.912Z,0.60
2022-10-06T01:48:38.081Z,0.40
2022-10-06T01:51:09.158Z,0.30
2022-10-06T01:53:40.303Z,0.50
2022-10-06T01:56:09.312Z,0.40
2022-10-06T01:58:38.294Z,0.60
2022-10-06T02:01:09.678Z,0.77
2022-10-06T02:03:40.433Z,0.30
2022-10-06T02:06:11.721Z,0.50
2022-10-06T02:08:42.125Z,0.40
2022-10-06T02:11:12.437Z,0.77
2022-10-06T02:13:45.132Z,0.50
2022-10-06T02:16:14.755Z,0.40
2022-10-06T02:18:45.599Z,0.27
2022-10-06T02:21:19.991Z,0.30
2022-10-06T02:23:50.567Z,0.50
2022-10-06T02:26:19.992Z,0.47
2022-10-06T02:28:50.783Z,0.30
2022-10-06T02:31:23.819Z,0.37
2022-10-06T02:33:54.465Z,0.40
2022-10-06T02:36:24.602Z,0.70
2022-10-06T02:38:55.066Z,0.37
2022-10-06T02:41:24.055Z,0.70
2022-10-06T02:43:53.619Z,0.60
2022-10-06T02:46:23.947Z,0.50
2022-10-06T02:48:54.536Z,1.07
2022-10-06T02:51:25.277Z,0.63
2022-10-06T02:53:56.257Z,0.80
2022-10-06T02:56:26.526Z,0.70
2022-10-06T02:58:55.633Z,0.53
2022-10-06T03:01:31.017Z,0.37
2022-10-06T03:04:03.221Z,1.07
2022-10-06T03:06:32.749Z,0.87
2022-10-06T03:09:29.187Z,0.60
2022-10-06T03:11:58.980Z,0.60
2022-10-06T03:14:40.744Z,0.60
2022-10-06T03:17:10.761Z,0.90
2022-10-06T03:19:46.118Z,1.00
2022-10-06T03:22:16.123Z,0.80
2022-10-06T03:24:52.883Z,1.03
2022-10-06T03:27:23.581Z,0.80
2022-10-06T03:29:55.669Z,0.67
2022-10-06T03:32:26.707Z,0.87
2022-10-06T03:34:55.655Z,0.90
2022-10-06T03:37:24.801Z,0.73
2022-10-06T03:39:55.123Z,0.70
2022-10-06T03:42:24.183Z,0.70
2022-10-06T03:44:54.364Z,1.03
2022-10-06T03:47:23.313Z,0.90
2022-10-06T03:49:52.292Z,0.97
2022-10-06T03:52:25.731Z,1.10
2022-10-06T03:54:56.654Z,0.50
2022-10-06T03:57:25.639Z,0.80
2022-10-06T03:59:59.148Z,0.90
2022-10-06T04:02:28.162Z,1.13
2022-10-06T04:04:57.234Z,0.80
2022-10-06T04:07:26.531Z,0.90
2022-10-06T04:09:57.038Z,0.50
2022-10-06T04:12:26.038Z,0.77
2022-10-06T04:14:59.860Z,1.03
2022-10-06T04:17:29.507Z,1.07
2022-10-06T04:19:58.513Z,1.07
2022-10-06T04:22:27.682Z,1.30
2022-10-06T04:24:58.035Z,1.43
2022-10-06T04:27:29.757Z,0.97
2022-10-06T04:30:04.007Z,0.70
2022-10-06T04:32:33.748Z,0.80
2022-10-06T04:35:03.017Z,0.80
2022-10-06T04:37:32.163Z,0.90
2022-10-06T04:40:03.140Z,0.90
2022-10-06T04:42:35.216Z,0.87
2022-10-06T04:45:07.614Z,1.03
2022-10-06T04:47:37.982Z,0.97
2022-10-06T04:50:07.775Z,1.00
2022-10-06T04:52:36.848Z,1.00
2022-10-06T04:55:08.317Z,1.23
2022-10-06T04:57:37.504Z,0.90
2022-10-06T05:00:26.755Z,1.50
2022-10-06T05:02:56.876Z,1.00
2022-10-06T05:05:25.896Z,1.03
2022-10-06T05:07:56.781Z,1.03
2022-10-06T05:10:28.453Z,0.90
2022-10-06T05:12:57.722Z,0.83
2022-10-06T05:15:28.082Z,1.30
2022-10-06T05:17:57.198Z,1.23
2022-10-06T05:20:26.226Z,1.37
2022-10-06T05:22:55.682Z,0.83
2022-10-06T05:25:26.197Z,1.00
2022-10-06T05:27:55.532Z,1.20
2022-10-06T05:30:24.601Z,0.90
2022-10-06T05:32:53.640Z,1.20
2022-10-06T05:35:22.738Z,1.20
2022-10-06T05:37:51.730Z,1.00
2022-10-06T05:40:20.737Z,1.20
2022-10-06T05:42:51.298Z,1.20
2022-10-06T05:45:20.291Z,1.33
2022-10-06T05:47:49.248Z,1.23
2022-10-06T05:50:20.627Z,1.47
2022-10-06T05:52:49.923Z,1.13
2022-10-06T05:55:18.875Z,1.10
2022-10-06T05:57:48.156Z,1.10
2022-10-06T06:00:18.572Z,0.90
2022-10-06T06:02:48.614Z,1.10
2022-10-06T06:05:17.720Z,0.93
2022-10-06T06:07:46.916Z,1.13
2022-10-06T06:10:15.933Z,1.43
2022-10-06T06:12:47.663Z,0.80
2022-10-06T06:15:57.518Z,1.33
2022-10-06T06:18:26.986Z,0.77
2022-10-06T06:20:59.797Z,1.57
2022-10-06T06:23:34.476Z,1.20
2022-10-06T06:26:05.065Z,1.00
2022-10-06T06:28:37.052Z,1.30
2022-10-06T06:31:09.429Z,1.17
2022-10-06T06:33:39.791Z,1.53
2022-10-06T06:36:14.873Z,0.97
2022-10-06T06:38:47.073Z,0.77
2022-10-06T06:41:17.957Z,1.43
2022-10-06T06:43:48.026Z,1.00
2022-10-06T06:46:32.433Z,1.10
2022-10-06T06:49:06.570Z,1.50
2022-10-06T06:51:49.790Z,1.10
2022-10-06T06:54:21.157Z,0.90
2022-10-06T06:56:55.217Z,0.90
2022-10-06T06:59:25.266Z,0.70
2022-10-06T07:01:58.165Z,1.33
2022-10-06T07:04:29.140Z,1.43
2022-10-06T07:06:58.447Z,1.20
2022-10-06T07:09:31.086Z,1.60
2022-10-06T07:12:06.461Z,0.70
2022-10-06T07:14:35.414Z,1.10
2022-10-06T07:17:23.853Z,1.10
2022-10-06T07:20:10.375Z,1.80
2022-10-06T07:22:56.811Z,0.90
2022-10-06T07:25:27.715Z,1.50
2022-10-06T07:27:59.626Z,1.40
2022-10-06T07:30:34.149Z,1.15
2022-10-06T07:33:10.686Z,1.30
2022-10-06T07:35:41.307Z,1.53
2022-10-06T07:38:10.282Z,1.33
2022-10-06T07:40:50.559Z,1.20
2022-10-06T07:43:32.491Z,1.40
2022-10-06T07:46:02.435Z,1.00
2022-10-06T07:48:36.995Z,0.93
2022-10-06T07:51:13.187Z,1.07
2022-10-06T07:53:44.693Z,0.85
2022-10-06T07:56:22.531Z,0.93
2022-10-06T07:58:55.895Z,1.50
2022-10-06T08:01:26.759Z,1.47
2022-10-06T08:03:57.693Z,1.45
2022-10-06T08:06:26.684Z,1.33
2022-10-06T08:08:56.528Z,1.27
2022-10-06T08:11:25.593Z,1.30
2022-10-06T08:13:54.517Z,1.20
2022-10-06T08:16:25.765Z,1.27
2022-10-06T08:18:57.726Z,1.07
2022-10-06T08:21:29.608Z,1.00
2022-10-06T08:23:59.956Z,1.13
2022-10-06T08:26:30.935Z,1.47
2022-10-06T08:29:02.116Z,1.42
2022-10-06T08:31:32.481Z,1.17
2022-10-06T08:34:02.908Z,1.23
2022-10-06T08:36:32.790Z,1.10
2022-10-06T08:39:01.947Z,1.30
2022-10-06T08:41:40.452Z,1.13
2022-10-06T08:44:20.348Z,1.60
2022-10-06T08:46:55.084Z,1.30
2022-10-06T08:49:28.299Z,1.30
2022-10-06T08:52:07.609Z,1.38
2022-10-06T08:54:42.273Z,1.48
2022-10-06T08:57:20.217Z,1.30
2022-10-06T08:59:53.336Z,1.25
2022-10-06T09:02:29.240Z,0.90
2022-10-06T09:05:02.365Z,1.17
2022-10-06T09:07:42.320Z,1.05
2022-10-06T09:10:29.614Z,1.30
2022-10-06T09:13:04.775Z,1.48
2022-10-06T09:15:40.923Z,0.95
2022-10-06T09:18:17.019Z,1.17
2022-10-06T09:20:53.003Z,1.73
2022-10-06T09:23:42.592Z,1.35
2022-10-06T09:26:14.031Z,1.20
2022-10-06T09:28:46.425Z,1.27
2022-10-06T09:31:22.342Z,1.58
2022-10-06T09:33:54.751Z,0.93
2022-10-06T09:36:25.090Z,0.90
2022-10-06T09:38:55.495Z,1.00
2022-10-06T09:41:27.926Z,1.13
2022-10-06T09:43:59.682Z,1.17
2022-10-06T09:46:32.646Z,1.05
2022-10-06T09:49:16.670Z,1.38
2022-10-06T09:52:10.288Z,1.10
2022-10-06T09:54:41.839Z,1.10
2022-10-06T09:57:16.017Z,1.00
2022-10-06T09:59:47.667Z,1.02
2022-10-06T10:02:31.436Z,1.00
2022-10-06T10:05:00.547Z,1.10
2022-10-06T10:07:33.072Z,1.00
2022-10-06T10:10:21.858Z,1.23
2022-10-06T10:12:52.119Z,1.38
2022-10-06T10:15:31.429Z,1.38
2022-10-06T10:18:04.045Z,1.08
2022-10-06T10:20:36.523Z,1.50
2022-10-06T10:23:28.662Z,1.02
2022-10-06T10:26:14.210Z,1.52
2022-10-06T10:29:04.694Z,1.08
2022-10-06T10:31:48.147Z,1.60
2022-10-06T10:34:38.138Z,1.30
2022-10-06T10:37:13.237Z,1.02
2022-10-06T10:39:49.549Z,1.15
2022-10-06T10:42:23.082Z,1.00
2022-10-06T10:44:58.255Z,1.33
2022-10-06T10:47:32.275Z,0.90
2022-10-06T10:50:07.989Z,0.93
2022-10-06T10:52:42.366Z,1.10
2022-10-06T10:55:23.214Z,1.02
2022-10-06T10:57:54.033Z,0.70
2022-10-06T11:00:28.081Z,1.10
2022-10-06T11:02:59.844Z,1.23
2022-10-06T11:05:40.073Z,1.30
2022-10-06T11:08:14.897Z,1.10
2022-10-06T11:10:50.781Z,0.80
2022-10-06T11:13:27.823Z,1.00
2022-10-06T11:16:12.344Z,1.35
2022-10-06T11:18:55.646Z,0.90
2022-10-06T11:21:28.229Z,1.05
2022-10-06T11:24:02.131Z,1.17
2022-10-06T11:26:49.030Z,1.13
2022-10-06T11:29:28.171Z,1.27
2022-10-06T11:32:05.511Z,1.05
2022-10-06T11:34:34.607Z,0.93
2022-10-06T11:37:13.040Z,0.98
2022-10-06T11:39:50.938Z,0.65
2022-10-06T11:45:05.976Z,1.40
2022-10-06T11:47:44.540Z,0.90
2022-10-06T11:50:35.173Z,1.10
2022-10-06T11:53:05.626Z,0.93
2022-10-06T11:55:34.880Z,1.00
2022-10-06T12:01:05.480Z,0.60
2022-10-06T12:04:13.404Z,0.93
2022-10-06T12:07:10.780Z,0.98
2022-10-06T12:09:51.706Z,0.70
2022-10-06T12:12:47.710Z,1.10
2022-10-06T12:19:03.398Z,0.80
2022-10-06T12:21:43.172Z,1.05
2022-10-06T12:24:41.276Z,1.00
2022-10-06T12:27:32.175Z,0.80
2022-10-06T12:30:06.447Z,1.48
2022-10-06T12:32:50.294Z,1.13
2022-10-06T12:35:34.792Z,0.93
2022-10-06T12:38:06.033Z,0.98
2022-10-06T12:40:55.186Z,1.10
2022-10-06T12:43:58.425Z,0.95
2022-10-06T12:46:49.274Z,1.10
2022-10-06T12:49:44.083Z,0.95
2022-10-06T12:52:48.006Z,1.17
2022-10-06T12:55:42.353Z,1.10
2022-10-06T12:58:19.573Z,1.05
2022-10-06T13:00:49.256Z,1.67
2022-10-06T13:03:20.541Z,1.00
2022-10-06T13:05:57.033Z,1.00
2022-10-06T13:08:28.329Z,1.20
2022-10-06T13:11:14.449Z,0.93
2022-10-06T13:13:48.763Z,0.85
2022-10-06T13:16:20.459Z,1.05
2022-10-06T13:18:49.975Z,1.00
2022-10-06T13:21:20.246Z,0.60
2022-10-06T13:23:49.893Z,0.85
2022-10-06T13:26:23.283Z,0.70
2022-10-06T13:28:53.562Z,1.08
2022-10-06T13:31:26.670Z,1.10
2022-10-06T13:33:59.555Z,1.05
2022-10-06T13:36:32.202Z,1.10
2022-10-06T13:39:03.840Z,0.80
2022-10-06T13:41:36.026Z,0.90
2022-10-06T13:44:19.736Z,1.10
2022-10-06T13:46:52.461Z,1.40
2022-10-06T13:49:26.089Z,1.00
2022-10-06T13:51:59.715Z,1.13
2022-10-06T13:54:34.881Z,0.85
2022-10-06T13:57:03.954Z,0.75
2022-10-06T13:59:38.300Z,0.88
2022-10-06T14:02:24.590Z,0.80
2022-10-06T14:05:32.650Z,1.02
2022-10-06T14:08:15.315Z,0.70
2022-10-06T14:10:49.573Z,0.80
2022-10-06T14:13:21.739Z,0.95
2022-10-06T14:15:53.000Z,0.65
2022-10-06T14:18:29.055Z,0.73
2022-10-06T14:20:58.629Z,0.60
2022-10-06T14:23:45.129Z,1.20
2022-10-06T14:26:15.640Z,0.80
2022-10-06T14:28:48.378Z,0.57
2022-10-06T14:31:17.687Z,0.95
2022-10-06T14:33:48.552Z,0.82
2022-10-06T14:36:20.558Z,0.63
2022-10-06T14:38:52.816Z,0.85
2022-10-06T14:41:24.876Z,0.63
2022-10-06T14:43:54.670Z,0.95
2022-10-06T14:46:25.080Z,0.60
2022-10-06T14:48:54.427Z,1.25
2022-10-06T14:51:25.896Z,0.63
2022-10-06T14:53:57.866Z,0.80
2022-10-06T14:56:31.650Z,1.00
2022-10-06T14:59:02.249Z,0.80
2022-10-06T15:01:32.012Z,0.75
2022-10-06T15:04:04.986Z,0.70
2022-10-06T15:06:51.709Z,1.20
2022-10-06T15:09:22.252Z,0.75
2022-10-06T15:11:51.908Z,0.80
2022-10-06T15:14:22.367Z,0.82
2022-10-06T15:16:51.965Z,0.70
2022-10-06T15:19:22.103Z,0.85
2022-10-06T15:21:51.071Z,0.65
2022-10-06T15:24:22.114Z,0.90
2022-10-06T15:27:08.832Z,0.82
2022-10-06T15:29:37.813Z,0.82
2022-10-06T15:32:07.188Z,0.90
2022-10-06T15:34:37.574Z,0.70
2022-10-06T15:37:06.998Z,0.77
2022-10-06T15:39:38.532Z,1.15
2022-10-06T15:42:08.588Z,1.00
2022-10-06T15:44:37.902Z,0.73
2022-10-06T15:47:07.919Z,0.85
2022-10-06T15:49:40.371Z,0.77
2022-10-06T15:52:12.113Z,0.45
2022-10-06T15:54:43.708Z,1.00
2022-10-06T15:57:19.496Z,0.80
2022-10-06T15:59:49.624Z,0.77
2022-10-06T16:02:20.373Z,0.90
2022-10-06T16:05:17.306Z,0.60
2022-10-06T16:07:46.219Z,0.70
2022-10-06T16:10:16.628Z,0.75
2022-10-06T16:12:45.980Z,0.75
2022-10-06T16:15:14.950Z,0.70
2022-10-06T16:17:43.886Z,0.80
2022-10-06T16:20:12.793Z,0.73
2022-10-06T16:22:42.243Z,1.10
2022-10-06T16:25:11.489Z,1.08
2022-10-06T16:27:41.805Z,1.00
2022-10-06T16:30:12.234Z,0.65
2022-10-06T16:32:41.489Z,0.90
2022-10-06T16:35:14.772Z,0.75
2022-10-06T16:37:49.759Z,0.80
2022-10-06T16:40:18.933Z,0.70
2022-10-06T16:42:49.356Z,0.95
2022-10-06T16:45:18.357Z,2.40
2022-10-06T16:47:47.267Z,0.82
2022-10-06T16:50:16.386Z,1.20
2022-10-06T16:52:45.330Z,0.60
2022-10-06T16:55:14.428Z,1.37
2022-10-06T16:57:43.417Z,0.80
2022-10-06T17:00:16.164Z,0.87
2022-10-06T17:02:45.113Z,1.00
2022-10-06T17:05:14.144Z,0.93
2022-10-06T17:07:43.078Z,1.17
2022-10-06T17:10:20.857Z,1.07
2022-10-06T17:12:50.216Z,0.97
2022-10-06T17:15:20.479Z,0.57
2022-10-06T17:17:49.397Z,1.10
2022-10-06T17:20:18.305Z,0.90
2022-10-06T17:22:47.337Z,0.70
2022-10-06T17:25:16.489Z,1.00
2022-10-06T17:27:45.425Z,0.83
2022-10-06T17:30:15.352Z,0.57
2022-10-06T17:32:46.976Z,0.80
2022-10-06T17:35:15.987Z,0.80
2022-10-06T17:37:45.440Z,1.00
2022-10-06T17:40:14.410Z,1.00
2022-10-06T17:42:43.705Z,1.00
2022-10-06T17:45:12.862Z,0.70
2022-10-06T17:47:42.082Z,0.83
2022-10-06T17:50:12.441Z,0.83
2022-10-06T17:52:41.826Z,1.20
2022-10-06T17:55:14.882Z,1.07
2022-10-06T17:57:43.806Z,0.80
2022-10-06T18:00:15.214Z,0.90
2022-10-06T18:02:44.739Z,1.40
2022-10-06T18:05:15.986Z,0.90
2022-10-06T18:07:45.579Z,1.17
2022-10-06T18:10:36.274Z,0.90
2022-10-06T18:13:06.084Z,1.50
2022-10-06T18:15:37.179Z,1.50
2022-10-06T18:18:06.495Z,1.70
2022-10-06T18:20:40.131Z,1.07
2022-10-06T18:23:09.515Z,1.47
2022-10-06T18:25:38.422Z,1.70
2022-10-06T18:28:07.378Z,1.50
2022-10-06T18:30:36.582Z,1.47
2022-10-06T18:36:15.256Z,1.27
2022-10-06T18:38:46.924Z,1.30
2022-10-06T18:41:18.960Z,1.67
2022-10-06T18:43:48.076Z,1.90
2022-10-06T18:46:36.059Z,1.27
2022-10-06T18:49:10.535Z,1.60
2022-10-06T18:51:44.110Z,1.27
2022-10-06T18:54:17.820Z,1.50
2022-10-06T18:56:51.732Z,1.23
2022-10-06T18:59:23.335Z,1.37
2022-10-06T19:01:52.948Z,1.30
2022-10-06T19:04:23.764Z,1.23
2022-10-06T19:06:56.497Z,1.20
2022-10-06T19:09:26.394Z,1.63
2022-10-06T19:11:59.958Z,1.53
2022-10-06T19:14:31.561Z,1.50
2022-10-06T19:17:03.261Z,1.30
2022-10-06T19:19:32.898Z,1.23
2022-10-06T19:22:05.154Z,1.50
2022-10-06T19:24:36.982Z,1.37
2022-10-06T19:27:11.552Z,1.47
2022-10-06T19:29:45.335Z,1.40
2022-10-06T19:32:18.760Z,1.50
2022-10-06T19:34:48.432Z,1.47
2022-10-06T19:37:19.270Z,1.40
2022-10-06T19:39:50.747Z,1.47
2022-10-06T19:42:38.505Z,1.17
2022-10-06T19:45:09.570Z,1.10
2022-10-06T19:47:38.634Z,1.57
2022-10-06T19:50:12.076Z,1.30
2022-10-06T19:52:43.538Z,1.17
2022-10-06T19:55:12.537Z,0.93
2022-10-06T19:57:43.217Z,1.40
2022-10-06T20:00:13.565Z,1.30
2022-10-06T20:02:43.992Z,1.40
2022-10-06T20:05:15.074Z,1.30
2022-10-06T20:07:47.495Z,1.40
2022-10-06T20:10:16.922Z,1.40
2022-10-06T20:12:46.296Z,1.20
2022-10-06T20:15:15.319Z,1.20
2022-10-06T20:17:45.522Z,1.30
2022-10-06T20:20:15.194Z,0.93
2022-10-06T20:22:45.798Z,0.80
2022-10-06T20:25:14.913Z,1.30
2022-10-06T20:27:44.913Z,1.40
2022-10-06T20:30:14.546Z,0.97
2022-10-06T20:32:43.526Z,1.50
2022-10-06T20:35:14.934Z,1.20
2022-10-06T20:37:45.757Z,1.50
2022-10-06T20:40:32.734Z,1.50
2022-10-06T20:43:01.826Z,1.50
2022-10-06T20:45:30.872Z,1.73
2022-10-06T20:48:00.187Z,1.70
2022-10-06T20:50:31.208Z,1.30
2022-10-06T20:53:01.556Z,1.10
2022-10-06T20:55:30.548Z,1.77
2022-10-06T20:57:59.567Z,1.27
2022-10-06T21:00:28.534Z,1.23
2022-10-06T21:02:57.641Z,1.20
2022-10-06T21:05:26.643Z,1.50
2022-10-06T21:07:55.643Z,1.10
2022-10-06T21:10:25.944Z,1.50
2022-10-06T21:12:55.804Z,1.63
2022-10-06T21:15:24.983Z,1.10
2022-10-06T21:17:53.969Z,1.50
2022-10-06T21:20:23.020Z,1.10
2022-10-06T21:22:52.657Z,2.03
2022-10-06T21:25:21.607Z,1.30
2022-10-06T21:27:51.939Z,1.43
2022-10-06T21:30:20.908Z,1.73
2022-10-06T21:32:49.917Z,1.23
2022-10-06T21:35:18.881Z,1.30
2022-10-06T21:37:47.855Z,1.63
2022-10-06T21:40:16.929Z,0.93
2022-10-06T21:42:45.934Z,1.30
2022-10-06T21:45:16.406Z,1.70
2022-10-06T21:47:46.303Z,1.43
2022-10-06T21:50:15.735Z,1.43
2022-10-06T21:52:44.681Z,1.53
2022-10-06T21:55:13.727Z,1.60
2022-10-06T21:57:42.976Z,1.50
2022-10-06T22:00:13.666Z,1.63
2022-10-06T22:02:44.095Z,1.33
2022-10-06T22:05:13.130Z,1.23
2022-10-06T22:07:42.487Z,1.20
2022-10-06T22:10:11.666Z,1.70
2022-10-06T22:12:40.623Z,1.60
2022-10-06T22:15:10.135Z,1.23
2022-10-06T22:17:39.100Z,1.00
2022-10-06T22:20:10.683Z,1.50
2022-10-06T22:22:39.677Z,1.30
2022-10-06T22:25:09.016Z,1.80
2022-10-06T22:27:37.991Z,1.80
2022-10-06T22:30:08.200Z,1.20
2022-10-06T22:32:37.164Z,1.20
2022-10-06T22:35:07.172Z,1.40
2022-10-06T22:37:37.477Z,1.53
2022-10-06T22:40:07.880Z,1.40
2022-10-06T22:42:36.910Z,1.63
2022-10-06T22:45:07.004Z,1.60
2022-10-06T22:47:35.987Z,1.40
2022-10-06T22:50:05.742Z,1.83
2022-10-06T22:52:36.080Z,1.73
2022-10-06T22:55:05.511Z,1.60
2022-10-06T22:57:34.584Z,1.53
2022-10-06T23:00:03.606Z,1.50
2022-10-06T23:02:33.343Z,2.00
2022-10-06T23:05:02.355Z,1.83
2022-10-06T23:07:31.288Z,1.47
2022-10-06T23:10:01.634Z,1.33
2022-10-06T23:12:30.630Z,1.40
2022-10-06T23:14:59.582Z,1.87
2022-10-06T23:17:28.533Z,1.50
2022-10-06T23:19:57.535Z,1.50
2022-10-06T23:22:26.477Z,1.20
2022-10-06T23:24:55.405Z,1.57
2022-10-06T23:27:25.771Z,1.57
2022-10-06T23:29:54.851Z,1.53
2022-10-06T23:32:24.339Z,1.37
2022-10-06T23:34:53.303Z,1.23
2022-10-06T23:37:22.420Z,1.50
2022-10-06T23:39:51.370Z,1.63
2022-10-06T23:42:20.375Z,1.00
2022-10-06T23:44:50.673Z,1.60
2022-10-06T23:47:19.644Z,1.47
2022-10-06T23:49:48.639Z,1.90
2022-10-06T23:52:17.647Z,1.37
2022-10-06T23:54:46.706Z,1.87
2022-10-06T23:57:15.651Z,1.77
2022-10-06T23:59:44.614Z,1.87
